Terminal Aerodrome Forecast
Issued by NWS Cleveland, OH

Home | Current Version | Previous Version | Text Only | Print | Product List | Glossary On
Versions: 1 2 3 4 5 6 7 8 9 10 11 12 13 14 15 16 17 18 19 20 21 22
000
FTUS41 KCLE 051400 AAC
TAFTOL
TAF AMD
KTOL 051416Z 0514/0612 07011KT P6SM -SHRA BKN015 OVC060
     FM051600 07006KT P6SM VCSH BKN012 OVC080
     FM052000 05010KT P6SM BKN025 OVC080
     FM060100 07005KT 6SM -SHRA BKN035 OVC070
     FM060600 06005KT 3SM BR BKN010=

USA.gov is the U.S. government's official web portal to all federal, state and local government web resources and services.